Terminal Aerodrome Forecast
Issued by NWS

Home | Current Version | Previous Version | Graphics & Text | Print | Product List | Glossary On
Versions: 1 2 3 4 5 6 7 8 9 10 11 12 13 14 15 16 17
696
FTUS43 KMPX 202335
TAFRNH
TAF
KRNH 202335Z 2100/2124 09005KT P6SM FEW250
     FM210800 VRB03KT P6SM BKN100
     FM211600 10007KT P6SM VCSH BKN040=

USA.gov is the U.S. government's official web portal to all federal, state and local government web resources and services.